sensor_id;sensor_type;location;lat;lon;timestamp;temperature;humidity
13091;DHT22;6611;52.604;13.438;2022-11-15T00:02:06;4.49;86.90
13091;DHT22;6611;52.604;13.438;2022-11-15T00:07:09;4.54;88.45
13091;DHT22;6611;52.604;13.438;2022-11-15T00:12:11;4.63;87.35
13091;DHT22;6611;52.604;13.438;2022-11-15T00:17:13;4.66;86.71
13091;DHT22;6611;52.604;13.438;2022-11-15T00:22:16;4.67;88.36
13091;DHT22;6611;52.604;13.438;2022-11-15T00:27:17;4.66;86.44
13091;DHT22;6611;52.604;13.438;2022-11-15T00:32:19;4.60;87.85
13091;DHT22;6611;52.604;13.438;2022-11-15T00:37:22;4.64;86.27
13091;DHT22;6611;52.604;13.438;2022-11-15T00:42:23;4.52;87.41
13091;DHT22;6611;52.604;13.438;2022-11-15T00:47:25;4.50;88.22
13091;DHT22;6611;52.604;13.438;2022-11-15T00:52:28;4.60;87.96
13091;DHT22;6611;52.604;13.438;2022-11-15T00:57:30;4.54;87.23
13091;DHT22;6611;52.604;13.438;2022-11-15T01:02:31;4.68;88.95
13091;DHT22;6611;52.604;13.438;2022-11-15T01:07:34;4.77;87.77
13091;DHT22;6611;52.604;13.438;2022-11-15T01:12:36;4.63;87.08
13091;DHT22;6611;52.604;13.438;2022-11-15T01:17:38;4.49;87.15
13091;DHT22;6611;52.604;13.438;2022-11-15T01:22:41;4.54;88.36
13091;DHT22;6611;52.604;13.438;2022-11-15T01:27:42;4.50;89.16
13091;DHT22;6611;52.604;13.438;2022-11-15T01:32:44;4.53;88.93
13091;DHT22;6611;52.604;13.438;2022-11-15T01:37:47;4.49;87.25
13091;DHT22;6611;52.604;13.438;2022-11-15T01:42:48;4.54;88.97
13091;DHT22;6611;52.604;13.438;2022-11-15T01:47:52;4.53;89.46
13091;DHT22;6611;52.604;13.438;2022-11-15T01:52:56;4.56;88.21
13091;DHT22;6611;52.604;13.438;2022-11-15T01:58:02;4.54;88.15
13091;DHT22;6611;52.604;13.438;2022-11-15T02:03:04;4.42;87.32
13091;DHT22;6611;52.604;13.438;2022-11-15T02:08:08;4.32;88.50
13091;DHT22;6611;52.604;13.438;2022-11-15T02:13:20;4.39;88.96
13091;DHT22;6611;52.604;13.438;2022-11-15T02:18:26;4.49;89.20
13091;DHT22;6611;52.604;13.438;2022-11-15T02:29:10;4.49;86.86
13091;DHT22;6611;52.604;13.438;2022-11-15T02:34:21;4.49;86.87
13091;DHT22;6611;52.604;13.438;2022-11-15T02:39:31;4.48;87.83
13091;DHT22;6611;52.604;13.438;2022-11-15T02:44:39;4.35;86.26
13091;DHT22;6611;52.604;13.438;2022-11-15T02:49:47;4.43;87.45
13091;DHT22;6611;52.604;13.438;2022-11-15T02:54:53;4.33;87.54
13091;DHT22;6611;52.604;13.438;2022-11-15T03:00:05;4.23;87.38
13091;DHT22;6611;52.604;13.438;2022-11-15T03:05:15;4.11;86.98
13091;DHT22;6611;52.604;13.438;2022-11-15T03:10:24;4.05;86.87
13091;DHT22;6611;52.604;13.438;2022-11-15T03:15:29;4.05;86.73
13091;DHT22;6611;52.604;13.438;2022-11-15T03:20:35;3.93;87.00
13091;DHT22;6611;52.604;13.438;2022-11-15T03:25:41;3.88;87.25
13091;DHT22;6611;52.604;13.438;2022-11-15T03:30:46;3.84;87.14
13091;DHT22;6611;52.604;13.438;2022-11-15T03:35:52;3.73;87.33
13091;DHT22;6611;52.604;13.438;2022-11-15T03:40:58;3.73;87.14
13091;DHT22;6611;52.604;13.438;2022-11-15T03:46:01;3.70;87.42
13091;DHT22;6611;52.604;13.438;2022-11-15T03:51:05;3.71;87.17
13091;DHT22;6611;52.604;13.438;2022-11-15T03:56:07;3.73;87.18
13091;DHT22;6611;52.604;13.438;2022-11-15T04:01:09;3.71;87.22
13091;DHT22;6611;52.604;13.438;2022-11-15T04:06:12;3.63;87.59
13091;DHT22;6611;52.604;13.438;2022-11-15T04:11:13;3.69;87.50
13091;DHT22;6611;52.604;13.438;2022-11-15T04:16:15;3.62;87.54
13091;DHT22;6611;52.604;13.438;2022-11-15T04:21:18;3.76;88.23
13091;DHT22;6611;52.604;13.438;2022-11-15T04:26:37;3.97;90.46
13091;DHT22;6611;52.604;13.438;2022-11-15T04:31:39;4.11;90.45
13091;DHT22;6611;52.604;13.438;2022-11-15T04:36:42;4.11;88.46
13091;DHT22;6611;52.604;13.438;2022-11-15T04:42:01;4.08;87.15
13091;DHT22;6611;52.604;13.438;2022-11-15T04:47:03;4.09;87.71
13091;DHT22;6611;52.604;13.438;2022-11-15T04:52:06;4.06;87.59
13091;DHT22;6611;52.604;13.438;2022-11-15T04:57:08;3.93;87.99
13091;DHT22;6611;52.604;13.438;2022-11-15T05:02:09;3.87;88.00
13091;DHT22;6611;52.604;13.438;2022-11-15T05:07:12;3.74;87.77
13091;DHT22;6611;52.604;13.438;2022-11-15T05:12:14;3.78;87.55
13091;DHT22;6611;52.604;13.438;2022-11-15T05:17:16;3.73;87.44
13091;DHT22;6611;52.604;13.438;2022-11-15T05:22:19;3.67;87.40
13091;DHT22;6611;52.604;13.438;2022-11-15T05:27:21;3.66;87.93
13091;DHT22;6611;52.604;13.438;2022-11-15T05:32:23;3.64;87.78
13091;DHT22;6611;52.604;13.438;2022-11-15T05:37:26;3.59;87.54
13091;DHT22;6611;52.604;13.438;2022-11-15T05:42:29;3.56;87.27
13091;DHT22;6611;52.604;13.438;2022-11-15T05:47:33;3.46;87.68
13091;DHT22;6611;52.604;13.438;2022-11-15T05:52:37;3.46;87.45
13091;DHT22;6611;52.604;13.438;2022-11-15T05:57:39;3.48;87.57
13091;DHT22;6611;52.604;13.438;2022-11-15T06:02:40;3.42;87.49
13091;DHT22;6611;52.604;13.438;2022-11-15T06:07:43;3.46;87.82
13091;DHT22;6611;52.604;13.438;2022-11-15T06:12:45;3.63;87.03
13091;DHT22;6611;52.604;13.438;2022-11-15T06:17:47;3.53;87.40
13091;DHT22;6611;52.604;13.438;2022-11-15T06:22:50;3.46;87.45
13091;DHT22;6611;52.604;13.438;2022-11-15T06:27:52;3.46;87.71
13091;DHT22;6611;52.604;13.438;2022-11-15T06:32:58;3.46;87.61
13091;DHT22;6611;52.604;13.438;2022-11-15T06:38:07;3.42;87.33
13091;DHT22;6611;52.604;13.438;2022-11-15T06:43:09;3.46;87.33
13091;DHT22;6611;52.604;13.438;2022-11-15T06:48:10;3.51;87.53
13091;DHT22;6611;52.604;13.438;2022-11-15T06:53:13;3.43;87.70
13091;DHT22;6611;52.604;13.438;2022-11-15T06:58:15;3.49;88.28
13091;DHT22;6611;52.604;13.438;2022-11-15T07:03:17;3.55;87.82
13091;DHT22;6611;52.604;13.438;2022-11-15T07:08:20;3.70;87.85
13091;DHT22;6611;52.604;13.438;2022-11-15T07:13:24;3.83;87.74
13091;DHT22;6611;52.604;13.438;2022-11-15T07:18:26;3.94;88.97
13091;DHT22;6611;52.604;13.438;2022-11-15T07:23:29;4.01;88.28
13091;DHT22;6611;52.604;13.438;2022-11-15T07:28:31;4.12;88.01
13091;DHT22;6611;52.604;13.438;2022-11-15T07:33:33;4.11;88.57
13091;DHT22;6611;52.604;13.438;2022-11-15T07:38:36;4.22;88.74
13091;DHT22;6611;52.604;13.438;2022-11-15T07:43:38;4.31;88.85
13091;DHT22;6611;52.604;13.438;2022-11-15T07:48:39;4.45;89.07
13091;DHT22;6611;52.604;13.438;2022-11-15T07:53:43;4.64;88.96
13091;DHT22;6611;52.604;13.438;2022-11-15T07:58:45;4.74;89.12
13091;DHT22;6611;52.604;13.438;2022-11-15T08:03:47;5.01;89.41
13091;DHT22;6611;52.604;13.438;2022-11-15T08:08:50;5.23;89.89
13091;DHT22;6611;52.604;13.438;2022-11-15T08:13:51;5.53;89.86
13091;DHT22;6611;52.604;13.438;2022-11-15T08:18:53;5.75;89.60
13091;DHT22;6611;52.604;13.438;2022-11-15T08:23:56;6.13;89.61
13091;DHT22;6611;52.604;13.438;2022-11-15T08:28:58;6.57;89.38
13091;DHT22;6611;52.604;13.438;2022-11-15T08:34:00;7.15;88.24
13091;DHT22;6611;52.604;13.438;2022-11-15T08:39:04;7.71;86.85
13091;DHT22;6611;52.604;13.438;2022-11-15T08:44:06;8.03;85.89
13091;DHT22;6611;52.604;13.438;2022-11-15T08:49:07;8.36;85.80
13091;DHT22;6611;52.604;13.438;2022-11-15T08:54:10;8.36;85.61
13091;DHT22;6611;52.604;13.438;2022-11-15T08:59:12;8.47;86.08
13091;DHT22;6611;52.604;13.438;2022-11-15T09:04:13;8.77;85.85
13091;DHT22;6611;52.604;13.438;2022-11-15T09:09:16;9.01;85.21
13091;DHT22;6611;52.604;13.438;2022-11-15T09:14:18;9.35;85.49
13091;DHT22;6611;52.604;13.438;2022-11-15T09:19:20;9.98;83.27
13091;DHT22;6611;52.604;13.438;2022-11-15T09:24:23;10.22;82.49
13091;DHT22;6611;52.604;13.438;2022-11-15T09:29:24;10.30;81.58
13091;DHT22;6611;52.604;13.438;2022-11-15T09:34:26;10.17;80.77
13091;DHT22;6611;52.604;13.438;2022-11-15T09:39:29;10.10;81.37
13091;DHT22;6611;52.604;13.438;2022-11-15T09:44:40;10.15;81.62
13091;DHT22;6611;52.604;13.438;2022-11-15T09:49:42;10.11;80.96
13091;DHT22;6611;52.604;13.438;2022-11-15T09:54:47;10.22;81.18
13091;DHT22;6611;52.604;13.438;2022-11-15T10:00:02;10.42;80.99
13091;DHT22;6611;52.604;13.438;2022-11-15T10:05:07;10.49;80.41
13091;DHT22;6611;52.604;13.438;2022-11-15T10:10:15;10.58;80.26
13091;DHT22;6611;52.604;13.438;2022-11-15T10:15:20;10.60;79.38
13091;DHT22;6611;52.604;13.438;2022-11-15T10:20:24;10.70;78.72
13091;DHT22;6611;52.604;13.438;2022-11-15T10:25:29;10.81;79.09
13091;DHT22;6611;52.604;13.438;2022-11-15T10:30:33;10.86;77.96
13091;DHT22;6611;52.604;13.438;2022-11-15T10:35:35;11.04;77.08
13091;DHT22;6611;52.604;13.438;2022-11-15T10:40:39;11.13;78.33
13091;DHT22;6611;52.604;13.438;2022-11-15T10:45:42;11.22;76.84
13091;DHT22;6611;52.604;13.438;2022-11-15T10:50:45;11.28;77.75
13091;DHT22;6611;52.604;13.438;2022-11-15T10:55:50;11.45;76.11
13091;DHT22;6611;52.604;13.438;2022-11-15T11:00:53;11.59;75.80
13091;DHT22;6611;52.604;13.438;2022-11-15T11:06:04;11.62;75.38
13091;DHT22;6611;52.604;13.438;2022-11-15T11:11:07;11.67;75.15
13091;DHT22;6611;52.604;13.438;2022-11-15T11:16:30;11.72;76.33
13091;DHT22;6611;52.604;13.438;2022-11-15T11:21:42;11.79;76.40
13091;DHT22;6611;52.604;13.438;2022-11-15T11:27:13;11.86;76.23
13091;DHT22;6611;52.604;13.438;2022-11-15T11:32:31;11.87;75.47
13091;DHT22;6611;52.604;13.438;2022-11-15T11:37:42;11.87;74.76
13091;DHT22;6611;52.604;13.438;2022-11-15T11:42:54;11.84;75.75
13091;DHT22;6611;52.604;13.438;2022-11-15T11:48:07;11.80;76.56
13091;DHT22;6611;52.604;13.438;2022-11-15T11:53:15;11.93;76.09
13091;DHT22;6611;52.604;13.438;2022-11-15T11:58:24;12.02;75.70
13091;DHT22;6611;52.604;13.438;2022-11-15T12:03:34;12.07;74.86
13091;DHT22;6611;52.604;13.438;2022-11-15T12:08:43;12.17;74.76
13091;DHT22;6611;52.604;13.438;2022-11-15T12:13:53;12.34;75.08
13091;DHT22;6611;52.604;13.438;2022-11-15T12:19:00;12.39;74.80
13091;DHT22;6611;52.604;13.438;2022-11-15T12:24:06;12.32;74.81
13091;DHT22;6611;52.604;13.438;2022-11-15T12:29:16;12.50;74.66
13091;DHT22;6611;52.604;13.438;2022-11-15T12:34:36;12.59;74.19
13091;DHT22;6611;52.604;13.438;2022-11-15T12:45:28;12.72;73.25
13091;DHT22;6611;52.604;13.438;2022-11-15T12:50:55;12.77;73.85
13091;DHT22;6611;52.604;13.438;2022-11-15T12:56:22;12.77;73.33
13091;DHT22;6611;52.604;13.438;2022-11-15T13:01:59;12.76;74.30
13091;DHT22;6611;52.604;13.438;2022-11-15T13:07:02;12.96;73.17
13091;DHT22;6611;52.604;13.438;2022-11-15T13:12:07;12.97;73.46
13091;DHT22;6611;52.604;13.438;2022-11-15T13:17:32;12.96;73.11
13091;DHT22;6611;52.604;13.438;2022-11-15T13:22:39;12.93;74.13
13091;DHT22;6611;52.604;13.438;2022-11-15T13:27:54;12.97;74.20
13091;DHT22;6611;52.604;13.438;2022-11-15T13:33:15;12.91;73.95
13091;DHT22;6611;52.604;13.438;2022-11-15T13:38:25;12.73;75.48
13091;DHT22;6611;52.604;13.438;2022-11-15T13:43:34;12.53;76.31
13091;DHT22;6611;52.604;13.438;2022-11-15T13:48:37;12.52;76.95
13091;DHT22;6611;52.604;13.438;2022-11-15T13:53:41;12.39;77.46
13091;DHT22;6611;52.604;13.438;2022-11-15T13:58:47;12.35;77.46
13091;DHT22;6611;52.604;13.438;2022-11-15T14:03:56;12.28;77.71
13091;DHT22;6611;52.604;13.438;2022-11-15T14:09:18;12.18;77.80
13091;DHT22;6611;52.604;13.438;2022-11-15T14:14:26;12.00;78.53
13091;DHT22;6611;52.604;13.438;2022-11-15T14:19:37;11.84;79.19
13091;DHT22;6611;52.604;13.438;2022-11-15T14:24:41;11.82;79.42
13091;DHT22;6611;52.604;13.438;2022-11-15T14:29:43;11.73;79.66
13091;DHT22;6611;52.604;13.438;2022-11-15T14:34:46;11.61;80.26
13091;DHT22;6611;52.604;13.438;2022-11-15T14:39:48;11.48;80.49
13091;DHT22;6611;52.604;13.438;2022-11-15T14:44:51;11.38;80.85
13091;DHT22;6611;52.604;13.438;2022-11-15T14:49:54;11.31;80.89
13091;DHT22;6611;52.604;13.438;2022-11-15T14:54:56;11.15;81.24
13091;DHT22;6611;52.604;13.438;2022-11-15T14:59:58;10.93;81.77
13091;DHT22;6611;52.604;13.438;2022-11-15T15:05:01;10.70;82.05
13091;DHT22;6611;52.604;13.438;2022-11-15T15:10:09;10.52;82.59
13091;DHT22;6611;52.604;13.438;2022-11-15T15:15:15;10.37;83.10
13091;DHT22;6611;52.604;13.438;2022-11-15T15:20:18;10.10;83.74
13091;DHT22;6611;52.604;13.438;2022-11-15T15:25:22;9.91;84.10
13091;DHT22;6611;52.604;13.438;2022-11-15T15:30:27;9.90;84.85
13091;DHT22;6611;52.604;13.438;2022-11-15T15:35:33;9.97;85.07
13091;DHT22;6611;52.604;13.438;2022-11-15T15:40:35;9.85;84.58
13091;DHT22;6611;52.604;13.438;2022-11-15T15:45:37;9.76;84.83
13091;DHT22;6611;52.604;13.438;2022-11-15T15:50:41;9.75;85.16
13091;DHT22;6611;52.604;13.438;2022-11-15T15:55:43;9.52;84.17
13091;DHT22;6611;52.604;13.438;2022-11-15T16:00:45;9.42;85.01
13091;DHT22;6611;52.604;13.438;2022-11-15T16:05:49;9.28;85.51
13091;DHT22;6611;52.604;13.438;2022-11-15T16:10:51;9.51;85.15
13091;DHT22;6611;52.604;13.438;2022-11-15T16:15:54;9.35;85.54
13091;DHT22;6611;52.604;13.438;2022-11-15T16:20:57;9.24;85.59
13091;DHT22;6611;52.604;13.438;2022-11-15T16:26:00;8.97;86.15
13091;DHT22;6611;52.604;13.438;2022-11-15T16:31:05;8.89;85.92
13091;DHT22;6611;52.604;13.438;2022-11-15T16:36:19;8.75;85.94
13091;DHT22;6611;52.604;13.438;2022-11-15T16:41:21;8.61;85.88
13091;DHT22;6611;52.604;13.438;2022-11-15T16:46:24;8.52;85.97
13091;DHT22;6611;52.604;13.438;2022-11-15T16:51:27;8.36;86.58
13091;DHT22;6611;52.604;13.438;2022-11-15T16:56:29;8.20;87.06
13091;DHT22;6611;52.604;13.438;2022-11-15T17:01:33;8.14;87.10
13091;DHT22;6611;52.604;13.438;2022-11-15T17:06:37;8.04;87.06
13091;DHT22;6611;52.604;13.438;2022-11-15T17:11:39;7.97;87.18
13091;DHT22;6611;52.604;13.438;2022-11-15T17:16:41;7.75;87.75
13091;DHT22;6611;52.604;13.438;2022-11-15T17:21:45;7.74;87.80
13091;DHT22;6611;52.604;13.438;2022-11-15T17:26:48;7.67;87.85
13091;DHT22;6611;52.604;13.438;2022-11-15T17:31:50;7.61;87.73
13091;DHT22;6611;52.604;13.438;2022-11-15T17:36:54;7.52;87.68
13091;DHT22;6611;52.604;13.438;2022-11-15T17:41:56;7.46;88.03
13091;DHT22;6611;52.604;13.438;2022-11-15T17:46:57;7.43;88.33
13091;DHT22;6611;52.604;13.438;2022-11-15T17:52:01;7.33;88.23
13091;DHT22;6611;52.604;13.438;2022-11-15T17:57:02;7.20;88.17
13091;DHT22;6611;52.604;13.438;2022-11-15T18:02:04;7.15;88.46
13091;DHT22;6611;52.604;13.438;2022-11-15T18:07:07;6.98;88.74
13091;DHT22;6611;52.604;13.438;2022-11-15T18:12:11;6.96;88.61
13091;DHT22;6611;52.604;13.438;2022-11-15T18:17:12;6.93;88.43
13091;DHT22;6611;52.604;13.438;2022-11-15T18:22:15;6.95;88.33
13091;DHT22;6611;52.604;13.438;2022-11-15T18:27:17;7.02;88.15
13091;DHT22;6611;52.604;13.438;2022-11-15T18:32:19;6.96;88.54
13091;DHT22;6611;52.604;13.438;2022-11-15T18:37:22;6.87;89.05
13091;DHT22;6611;52.604;13.438;2022-11-15T18:42:24;6.78;89.26
13091;DHT22;6611;52.604;13.438;2022-11-15T18:47:26;6.77;89.72
13091;DHT22;6611;52.604;13.438;2022-11-15T18:52:30;6.78;90.01
13091;DHT22;6611;52.604;13.438;2022-11-15T18:57:32;6.68;90.22
13091;DHT22;6611;52.604;13.438;2022-11-15T19:02:33;6.63;90.64
13091;DHT22;6611;52.604;13.438;2022-11-15T19:07:36;6.64;90.71
13091;DHT22;6611;52.604;13.438;2022-11-15T19:12:38;6.61;90.94
13091;DHT22;6611;52.604;13.438;2022-11-15T19:17:40;6.77;90.75
13091;DHT22;6611;52.604;13.438;2022-11-15T19:22:43;6.74;90.92
13091;DHT22;6611;52.604;13.438;2022-11-15T19:27:44;6.74;91.04
13091;DHT22;6611;52.604;13.438;2022-11-15T19:32:46;6.65;91.58
13091;DHT22;6611;52.604;13.438;2022-11-15T19:37:49;6.71;91.46
13091;DHT22;6611;52.604;13.438;2022-11-15T19:42:51;6.79;91.44
13091;DHT22;6611;52.604;13.438;2022-11-15T19:47:52;6.71;91.79
13091;DHT22;6611;52.604;13.438;2022-11-15T19:52:55;6.65;91.99
13091;DHT22;6611;52.604;13.438;2022-11-15T19:57:58;6.75;91.86
13091;DHT22;6611;52.604;13.438;2022-11-15T20:03:00;6.78;91.85
13091;DHT22;6611;52.604;13.438;2022-11-15T20:08:03;6.81;91.98
13091;DHT22;6611;52.604;13.438;2022-11-15T20:13:05;6.82;91.89
13091;DHT22;6611;52.604;13.438;2022-11-15T20:18:06;6.82;91.86
13091;DHT22;6611;52.604;13.438;2022-11-15T20:23:09;6.75;91.75
13091;DHT22;6611;52.604;13.438;2022-11-15T20:28:14;6.65;91.88
13091;DHT22;6611;52.604;13.438;2022-11-15T20:33:16;6.57;92.04
13091;DHT22;6611;52.604;13.438;2022-11-15T20:38:20;6.64;91.83
13091;DHT22;6611;52.604;13.438;2022-11-15T20:43:21;6.72;91.64
13091;DHT22;6611;52.604;13.438;2022-11-15T20:48:23;6.74;91.79
13091;DHT22;6611;52.604;13.438;2022-11-15T20:53:26;6.74;91.46
13091;DHT22;6611;52.604;13.438;2022-11-15T20:58:28;6.65;91.82
13091;DHT22;6611;52.604;13.438;2022-11-15T21:03:30;6.58;92.17
13091;DHT22;6611;52.604;13.438;2022-11-15T21:08:33;6.57;92.42
13091;DHT22;6611;52.604;13.438;2022-11-15T21:13:48;6.55;92.54
13091;DHT22;6611;52.604;13.438;2022-11-15T21:18:51;6.50;92.62
13091;DHT22;6611;52.604;13.438;2022-11-15T21:23:54;6.45;92.62
13091;DHT22;6611;52.604;13.438;2022-11-15T21:28:56;6.38;93.09
13091;DHT22;6611;52.604;13.438;2022-11-15T21:33:59;6.44;93.11
13091;DHT22;6611;52.604;13.438;2022-11-15T21:39:03;6.51;92.93
13091;DHT22;6611;52.604;13.438;2022-11-15T21:44:05;6.60;92.53
13091;DHT22;6611;52.604;13.438;2022-11-15T21:49:06;6.54;92.60
13091;DHT22;6611;52.604;13.438;2022-11-15T21:54:10;6.50;92.79
13091;DHT22;6611;52.604;13.438;2022-11-15T21:59:11;6.50;92.71
13091;DHT22;6611;52.604;13.438;2022-11-15T22:04:13;6.41;92.89
13091;DHT22;6611;52.604;13.438;2022-11-15T22:09:16;6.38;93.18
13091;DHT22;6611;52.604;13.438;2022-11-15T22:14:18;6.40;93.07
13091;DHT22;6611;52.604;13.438;2022-11-15T22:19:20;6.37;93.40
13091;DHT22;6611;52.604;13.438;2022-11-15T22:24:23;6.38;93.51
13091;DHT22;6611;52.604;13.438;2022-11-15T22:29:25;6.40;93.37
13091;DHT22;6611;52.604;13.438;2022-11-15T22:34:27;6.32;93.40
13091;DHT22;6611;52.604;13.438;2022-11-15T22:39:30;6.32;93.58
13091;DHT22;6611;52.604;13.438;2022-11-15T22:44:32;6.32;93.49
13091;DHT22;6611;52.604;13.438;2022-11-15T22:49:34;6.30;93.29
13091;DHT22;6611;52.604;13.438;2022-11-15T22:54:37;6.36;93.35
13091;DHT22;6611;52.604;13.438;2022-11-15T22:59:39;6.32;93.25
13091;DHT22;6611;52.604;13.438;2022-11-15T23:04:41;6.34;93.27
13091;DHT22;6611;52.604;13.438;2022-11-15T23:09:45;6.41;93.03
13091;DHT22;6611;52.604;13.438;2022-11-15T23:14:48;6.38;92.90
13091;DHT22;6611;52.604;13.438;2022-11-15T23:19:50;6.26;93.18
13091;DHT22;6611;52.604;13.438;2022-11-15T23:24:54;6.17;93.53
13091;DHT22;6611;52.604;13.438;2022-11-15T23:29:55;6.12;93.73
13091;DHT22;6611;52.604;13.438;2022-11-15T23:35:15;6.09;93.85
13091;DHT22;6611;52.604;13.438;2022-11-15T23:40:18;6.05;93.77
13091;DHT22;6611;52.604;13.438;2022-11-15T23:45:20;5.94;93.95
13091;DHT22;6611;52.604;13.438;2022-11-15T23:50:22;5.91;93.94
13091;DHT22;6611;52.604;13.438;2022-11-15T23:55:26;5.81;94.31
